CheckWX is a tool to help pilots better visualize weather data.  It is not intended as a substitute for an official pre-flight weather briefing.

12:48:40 UTC

KBVI TAF
Beaver County Airport
Beaver Falls, Pennsylvania, USA
KBVI 041722Z 0418/0518 29003KT P6SM SCT040 FM050000 VRB03KT P6SM BKN070 FM051400 30004KT P6SM VCSH BKN025

Apr-4@
18:00 UTC

Apr-4 @ 18:00 UTC

Apr-5@
00:00 UTC

Apr-5 @ 00:00 UTC

TAF KBVI 041722Z 0418/0518 29003KT P6SM SCT040

Expired

Wind
  • 290° at 3 KTS
Cloud Levels
  • Scattered at 4,000' AGL

Apr-5@
00:00 UTC

Apr-5 @ 00:00 UTC

Apr-5@
14:00 UTC

Apr-5 @ 14:00 UTC

FM050000 VRB03KT P6SM BKN070

From

From Standard forecast or significant change

Wind
  • Variable at 3 KTS
Cloud Levels
  • Broken at 7,000' AGL

Apr-5@
14:00 UTC

Apr-5 @ 14:00 UTC

Apr-5@
18:00 UTC

Apr-5 @ 18:00 UTC

FM051400 30004KT P6SM VCSH BKN025

From

From Standard forecast or significant change

Wind
  • 300° at 4 KTS
Conditions
Area Showers
Cloud Levels
  • Broken at 2,500' AGL